sensor_id;sensor_type;location;lat;lon;timestamp;temperature;humidity
8939;DHT22;4504;48.810;9.172;2023-08-07T00:01:22;12.60;99.90
8939;DHT22;4504;48.810;9.172;2023-08-07T00:03:49;12.60;99.90
8939;DHT22;4504;48.810;9.172;2023-08-07T00:06:16;12.50;99.90
8939;DHT22;4504;48.810;9.172;2023-08-07T00:08:43;12.60;99.90
8939;DHT22;4504;48.810;9.172;2023-08-07T00:11:10;12.50;99.90
8939;DHT22;4504;48.810;9.172;2023-08-07T00:13:39;12.60;99.90
8939;DHT22;4504;48.810;9.172;2023-08-07T00:16:06;12.50;99.90
8939;DHT22;4504;48.810;9.172;2023-08-07T00:18:33;12.50;99.90
8939;DHT22;4504;48.810;9.172;2023-08-07T00:20:59;12.50;99.90
8939;DHT22;4504;48.810;9.172;2023-08-07T00:23:26;12.60;99.90
8939;DHT22;4504;48.810;9.172;2023-08-07T00:25:53;12.50;99.90
8939;DHT22;4504;48.810;9.172;2023-08-07T00:28:20;12.50;99.90
8939;DHT22;4504;48.810;9.172;2023-08-07T00:30:49;12.50;99.90
8939;DHT22;4504;48.810;9.172;2023-08-07T00:33:16;12.50;99.90
8939;DHT22;4504;48.810;9.172;2023-08-07T00:35:43;12.50;99.90
8939;DHT22;4504;48.810;9.172;2023-08-07T00:38:10;12.50;99.90
8939;DHT22;4504;48.810;9.172;2023-08-07T00:40:38;12.60;99.90
8939;DHT22;4504;48.810;9.172;2023-08-07T00:43:05;12.60;99.90
8939;DHT22;4504;48.810;9.172;2023-08-07T00:45:35;12.60;99.90
8939;DHT22;4504;48.810;9.172;2023-08-07T00:48:05;12.60;99.90
8939;DHT22;4504;48.810;9.172;2023-08-07T00:50:32;12.60;99.90
8939;DHT22;4504;48.810;9.172;2023-08-07T00:52:59;12.60;99.90
8939;DHT22;4504;48.810;9.172;2023-08-07T00:55:27;12.60;99.90
8939;DHT22;4504;48.810;9.172;2023-08-07T00:57:57;12.70;99.90
8939;DHT22;4504;48.810;9.172;2023-08-07T01:00:25;12.70;99.90
8939;DHT22;4504;48.810;9.172;2023-08-07T01:02:54;12.70;99.90
8939;DHT22;4504;48.810;9.172;2023-08-07T01:05:24;12.70;99.90
8939;DHT22;4504;48.810;9.172;2023-08-07T01:07:53;12.70;99.90
8939;DHT22;4504;48.810;9.172;2023-08-07T01:10:25;12.80;99.90
8939;DHT22;4504;48.810;9.172;2023-08-07T01:13:05;12.70;99.90
8939;DHT22;4504;48.810;9.172;2023-08-07T01:15:35;12.70;99.90
8939;DHT22;4504;48.810;9.172;2023-08-07T01:18:05;12.70;99.90
8939;DHT22;4504;48.810;9.172;2023-08-07T01:20:34;12.70;99.90
8939;DHT22;4504;48.810;9.172;2023-08-07T01:23:02;12.70;99.90
8939;DHT22;4504;48.810;9.172;2023-08-07T01:25:30;12.70;99.90
8939;DHT22;4504;48.810;9.172;2023-08-07T01:28:05;12.70;99.90
8939;DHT22;4504;48.810;9.172;2023-08-07T01:30:36;12.70;99.90
8939;DHT22;4504;48.810;9.172;2023-08-07T01:33:17;12.80;99.90
8939;DHT22;4504;48.810;9.172;2023-08-07T01:35:51;12.70;99.90
8939;DHT22;4504;48.810;9.172;2023-08-07T01:38:21;12.70;99.90
8939;DHT22;4504;48.810;9.172;2023-08-07T01:40:51;12.70;99.90
8939;DHT22;4504;48.810;9.172;2023-08-07T01:43:19;12.70;99.90
8939;DHT22;4504;48.810;9.172;2023-08-07T01:45:46;12.80;99.90
8939;DHT22;4504;48.810;9.172;2023-08-07T01:48:13;12.70;99.90
8939;DHT22;4504;48.810;9.172;2023-08-07T01:50:41;12.80;99.90
8939;DHT22;4504;48.810;9.172;2023-08-07T01:53:08;12.70;99.90
8939;DHT22;4504;48.810;9.172;2023-08-07T01:55:36;12.80;99.90
8939;DHT22;4504;48.810;9.172;2023-08-07T01:58:03;12.80;99.90
8939;DHT22;4504;48.810;9.172;2023-08-07T02:00:30;12.80;99.90
8939;DHT22;4504;48.810;9.172;2023-08-07T02:02:58;12.80;99.90
8939;DHT22;4504;48.810;9.172;2023-08-07T02:05:26;12.80;99.90
8939;DHT22;4504;48.810;9.172;2023-08-07T02:07:53;12.80;99.90
8939;DHT22;4504;48.810;9.172;2023-08-07T02:10:22;12.80;99.90
8939;DHT22;4504;48.810;9.172;2023-08-07T02:12:51;12.70;99.90
8939;DHT22;4504;48.810;9.172;2023-08-07T02:15:18;12.70;99.90
8939;DHT22;4504;48.810;9.172;2023-08-07T02:17:49;12.70;99.90
8939;DHT22;4504;48.810;9.172;2023-08-07T02:20:16;12.70;99.90
8939;DHT22;4504;48.810;9.172;2023-08-07T02:22:44;12.70;99.90
8939;DHT22;4504;48.810;9.172;2023-08-07T02:25:11;12.70;99.90
8939;DHT22;4504;48.810;9.172;2023-08-07T02:27:38;12.70;99.90
8939;DHT22;4504;48.810;9.172;2023-08-07T02:30:07;12.60;99.90
8939;DHT22;4504;48.810;9.172;2023-08-07T02:32:34;12.60;99.90
8939;DHT22;4504;48.810;9.172;2023-08-07T02:35:01;12.60;99.90
8939;DHT22;4504;48.810;9.172;2023-08-07T02:37:28;12.50;99.90
8939;DHT22;4504;48.810;9.172;2023-08-07T02:39:55;12.50;99.90
8939;DHT22;4504;48.810;9.172;2023-08-07T02:42:22;12.50;99.90
8939;DHT22;4504;48.810;9.172;2023-08-07T02:44:49;12.50;99.90
8939;DHT22;4504;48.810;9.172;2023-08-07T02:47:17;12.40;99.90
8939;DHT22;4504;48.810;9.172;2023-08-07T02:49:45;12.50;99.90
8939;DHT22;4504;48.810;9.172;2023-08-07T02:52:12;12.50;99.90
8939;DHT22;4504;48.810;9.172;2023-08-07T02:54:38;12.40;99.90
8939;DHT22;4504;48.810;9.172;2023-08-07T02:57:06;12.40;99.90
8939;DHT22;4504;48.810;9.172;2023-08-07T02:59:33;12.40;99.90
8939;DHT22;4504;48.810;9.172;2023-08-07T03:02:00;12.40;99.90
8939;DHT22;4504;48.810;9.172;2023-08-07T03:04:28;12.40;99.90
8939;DHT22;4504;48.810;9.172;2023-08-07T03:06:55;12.40;99.90
8939;DHT22;4504;48.810;9.172;2023-08-07T03:09:22;12.40;99.90
8939;DHT22;4504;48.810;9.172;2023-08-07T03:11:49;12.40;99.90
8939;DHT22;4504;48.810;9.172;2023-08-07T03:14:16;12.40;99.90
8939;DHT22;4504;48.810;9.172;2023-08-07T03:16:44;12.40;99.90
8939;DHT22;4504;48.810;9.172;2023-08-07T03:19:11;12.40;99.90
8939;DHT22;4504;48.810;9.172;2023-08-07T03:21:40;12.40;99.90
8939;DHT22;4504;48.810;9.172;2023-08-07T03:24:07;12.40;99.90
8939;DHT22;4504;48.810;9.172;2023-08-07T03:26:34;12.50;99.90
8939;DHT22;4504;48.810;9.172;2023-08-07T03:29:01;12.50;99.90
8939;DHT22;4504;48.810;9.172;2023-08-07T03:31:28;12.50;99.90
8939;DHT22;4504;48.810;9.172;2023-08-07T03:33:56;12.50;99.90
8939;DHT22;4504;48.810;9.172;2023-08-07T03:36:24;12.50;99.90
8939;DHT22;4504;48.810;9.172;2023-08-07T03:38:52;12.50;99.90
8939;DHT22;4504;48.810;9.172;2023-08-07T03:41:19;12.50;99.90
8939;DHT22;4504;48.810;9.172;2023-08-07T03:43:46;12.50;99.90
8939;DHT22;4504;48.810;9.172;2023-08-07T03:46:13;12.50;99.90
8939;DHT22;4504;48.810;9.172;2023-08-07T03:48:40;12.50;99.90
8939;DHT22;4504;48.810;9.172;2023-08-07T03:51:08;12.40;99.90
8939;DHT22;4504;48.810;9.172;2023-08-07T03:53:41;12.40;99.90
8939;DHT22;4504;48.810;9.172;2023-08-07T03:56:09;12.40;99.90
8939;DHT22;4504;48.810;9.172;2023-08-07T03:58:36;12.50;99.90
8939;DHT22;4504;48.810;9.172;2023-08-07T04:01:03;12.50;99.90
8939;DHT22;4504;48.810;9.172;2023-08-07T04:03:30;12.50;99.90
8939;DHT22;4504;48.810;9.172;2023-08-07T04:05:58;12.40;99.90
8939;DHT22;4504;48.810;9.172;2023-08-07T04:08:26;12.40;99.90
8939;DHT22;4504;48.810;9.172;2023-08-07T04:11:04;12.40;99.90
8939;DHT22;4504;48.810;9.172;2023-08-07T04:13:35;12.40;99.90
8939;DHT22;4504;48.810;9.172;2023-08-07T04:16:02;12.40;99.90
8939;DHT22;4504;48.810;9.172;2023-08-07T04:18:30;12.40;99.90
8939;DHT22;4504;48.810;9.172;2023-08-07T04:20:58;12.40;99.90
8939;DHT22;4504;48.810;9.172;2023-08-07T04:23:25;12.40;99.90
8939;DHT22;4504;48.810;9.172;2023-08-07T04:25:53;12.40;99.90
8939;DHT22;4504;48.810;9.172;2023-08-07T04:28:20;12.40;99.90
8939;DHT22;4504;48.810;9.172;2023-08-07T04:30:50;12.40;99.90
8939;DHT22;4504;48.810;9.172;2023-08-07T04:33:19;12.40;99.90
8939;DHT22;4504;48.810;9.172;2023-08-07T04:35:46;12.50;99.90
8939;DHT22;4504;48.810;9.172;2023-08-07T04:38:14;12.50;99.90
8939;DHT22;4504;48.810;9.172;2023-08-07T04:40:44;12.60;99.90
8939;DHT22;4504;48.810;9.172;2023-08-07T04:43:12;12.60;99.90
8939;DHT22;4504;48.810;9.172;2023-08-07T04:45:39;12.50;99.90
8939;DHT22;4504;48.810;9.172;2023-08-07T04:48:07;12.60;99.90
8939;DHT22;4504;48.810;9.172;2023-08-07T04:50:34;12.60;99.90
8939;DHT22;4504;48.810;9.172;2023-08-07T04:53:01;12.60;99.90
8939;DHT22;4504;48.810;9.172;2023-08-07T04:55:28;12.70;99.90
8939;DHT22;4504;48.810;9.172;2023-08-07T04:57:55;12.60;99.90
8939;DHT22;4504;48.810;9.172;2023-08-07T05:00:22;12.60;99.90
8939;DHT22;4504;48.810;9.172;2023-08-07T05:02:49;12.60;99.90
8939;DHT22;4504;48.810;9.172;2023-08-07T05:05:18;12.60;99.90
8939;DHT22;4504;48.810;9.172;2023-08-07T05:07:46;12.60;99.90
8939;DHT22;4504;48.810;9.172;2023-08-07T05:10:13;12.60;99.90
8939;DHT22;4504;48.810;9.172;2023-08-07T05:12:40;12.60;99.90
8939;DHT22;4504;48.810;9.172;2023-08-07T05:15:08;12.60;99.90
8939;DHT22;4504;48.810;9.172;2023-08-07T05:17:35;12.70;99.90
8939;DHT22;4504;48.810;9.172;2023-08-07T05:20:02;12.60;99.90
8939;DHT22;4504;48.810;9.172;2023-08-07T05:22:32;12.60;99.90
8939;DHT22;4504;48.810;9.172;2023-08-07T05:24:59;12.70;99.90
8939;DHT22;4504;48.810;9.172;2023-08-07T05:27:26;12.70;99.90
8939;DHT22;4504;48.810;9.172;2023-08-07T05:29:53;12.70;99.90
8939;DHT22;4504;48.810;9.172;2023-08-07T05:32:20;12.80;99.90
8939;DHT22;4504;48.810;9.172;2023-08-07T05:34:47;12.80;99.90
8939;DHT22;4504;48.810;9.172;2023-08-07T05:37:14;12.80;99.90
8939;DHT22;4504;48.810;9.172;2023-08-07T05:39:42;12.90;99.90
8939;DHT22;4504;48.810;9.172;2023-08-07T05:42:09;13.00;99.90
8939;DHT22;4504;48.810;9.172;2023-08-07T05:44:37;13.10;99.90
8939;DHT22;4504;48.810;9.172;2023-08-07T05:47:05;13.00;99.90
8939;DHT22;4504;48.810;9.172;2023-08-07T05:49:32;13.00;99.90
8939;DHT22;4504;48.810;9.172;2023-08-07T05:51:59;13.00;99.90
8939;DHT22;4504;48.810;9.172;2023-08-07T05:54:26;13.10;99.90
8939;DHT22;4504;48.810;9.172;2023-08-07T05:56:55;13.10;99.90
8939;DHT22;4504;48.810;9.172;2023-08-07T05:59:22;13.20;99.90
8939;DHT22;4504;48.810;9.172;2023-08-07T06:01:49;13.20;99.90
8939;DHT22;4504;48.810;9.172;2023-08-07T06:04:16;13.30;99.90
8939;DHT22;4504;48.810;9.172;2023-08-07T06:06:43;13.20;99.90
8939;DHT22;4504;48.810;9.172;2023-08-07T06:09:11;13.20;99.90
8939;DHT22;4504;48.810;9.172;2023-08-07T06:11:40;13.30;99.90
8939;DHT22;4504;48.810;9.172;2023-08-07T06:14:09;13.30;99.90
8939;DHT22;4504;48.810;9.172;2023-08-07T06:16:36;13.30;99.90
8939;DHT22;4504;48.810;9.172;2023-08-07T06:19:03;13.30;99.90
8939;DHT22;4504;48.810;9.172;2023-08-07T06:21:30;13.30;99.90
8939;DHT22;4504;48.810;9.172;2023-08-07T06:23:57;13.30;99.90
8939;DHT22;4504;48.810;9.172;2023-08-07T06:26:24;13.30;99.90
8939;DHT22;4504;48.810;9.172;2023-08-07T06:28:51;13.30;99.90
8939;DHT22;4504;48.810;9.172;2023-08-07T06:31:19;13.40;99.90
8939;DHT22;4504;48.810;9.172;2023-08-07T06:33:46;13.40;99.90
8939;DHT22;4504;48.810;9.172;2023-08-07T06:36:13;13.40;99.90
8939;DHT22;4504;48.810;9.172;2023-08-07T06:38:40;13.40;99.90
8939;DHT22;4504;48.810;9.172;2023-08-07T06:41:07;13.40;99.90
8939;DHT22;4504;48.810;9.172;2023-08-07T06:43:34;13.50;99.90
8939;DHT22;4504;48.810;9.172;2023-08-07T06:46:01;13.40;99.90
8939;DHT22;4504;48.810;9.172;2023-08-07T06:48:29;13.40;99.90
8939;DHT22;4504;48.810;9.172;2023-08-07T06:50:56;13.40;99.90
8939;DHT22;4504;48.810;9.172;2023-08-07T06:53:23;13.50;99.90
8939;DHT22;4504;48.810;9.172;2023-08-07T06:55:50;13.60;99.90
8939;DHT22;4504;48.810;9.172;2023-08-07T06:58:18;13.70;99.90
8939;DHT22;4504;48.810;9.172;2023-08-07T07:00:45;13.70;99.90
8939;DHT22;4504;48.810;9.172;2023-08-07T07:03:12;13.80;99.90
8939;DHT22;4504;48.810;9.172;2023-08-07T07:05:41;13.80;99.90
8939;DHT22;4504;48.810;9.172;2023-08-07T07:08:08;13.90;99.90
8939;DHT22;4504;48.810;9.172;2023-08-07T07:10:35;14.00;99.90
8939;DHT22;4504;48.810;9.172;2023-08-07T07:13:02;14.00;99.90
8939;DHT22;4504;48.810;9.172;2023-08-07T07:15:29;14.00;99.90
8939;DHT22;4504;48.810;9.172;2023-08-07T07:17:56;13.90;99.90
8939;DHT22;4504;48.810;9.172;2023-08-07T07:20:23;14.00;99.90
8939;DHT22;4504;48.810;9.172;2023-08-07T07:22:52;14.00;99.90
8939;DHT22;4504;48.810;9.172;2023-08-07T07:25:19;14.00;99.90
8939;DHT22;4504;48.810;9.172;2023-08-07T07:27:46;14.10;99.90
8939;DHT22;4504;48.810;9.172;2023-08-07T07:30:13;14.10;99.90
8939;DHT22;4504;48.810;9.172;2023-08-07T07:32:40;14.10;99.90
8939;DHT22;4504;48.810;9.172;2023-08-07T07:35:08;14.10;99.90
8939;DHT22;4504;48.810;9.172;2023-08-07T07:37:35;14.10;99.90
8939;DHT22;4504;48.810;9.172;2023-08-07T07:40:04;14.20;99.90
8939;DHT22;4504;48.810;9.172;2023-08-07T07:42:31;14.20;99.90
8939;DHT22;4504;48.810;9.172;2023-08-07T07:44:58;14.20;99.90
8939;DHT22;4504;48.810;9.172;2023-08-07T07:47:25;14.30;99.90
8939;DHT22;4504;48.810;9.172;2023-08-07T07:50:05;14.30;99.90
8939;DHT22;4504;48.810;9.172;2023-08-07T07:52:33;14.20;99.90
8939;DHT22;4504;48.810;9.172;2023-08-07T07:55:00;14.30;99.90
8939;DHT22;4504;48.810;9.172;2023-08-07T07:57:28;14.40;99.90
8939;DHT22;4504;48.810;9.172;2023-08-07T07:59:55;14.50;99.90
8939;DHT22;4504;48.810;9.172;2023-08-07T08:02:22;14.50;99.90
8939;DHT22;4504;48.810;9.172;2023-08-07T08:04:50;14.40;99.90
8939;DHT22;4504;48.810;9.172;2023-08-07T08:07:18;14.40;99.90
8939;DHT22;4504;48.810;9.172;2023-08-07T08:09:45;14.50;99.90
8939;DHT22;4504;48.810;9.172;2023-08-07T08:12:12;14.50;99.90
8939;DHT22;4504;48.810;9.172;2023-08-07T08:14:41;14.40;99.90
8939;DHT22;4504;48.810;9.172;2023-08-07T08:17:08;14.40;99.90
8939;DHT22;4504;48.810;9.172;2023-08-07T08:19:35;14.50;99.90
8939;DHT22;4504;48.810;9.172;2023-08-07T08:22:02;14.60;99.90
8939;DHT22;4504;48.810;9.172;2023-08-07T08:24:29;14.60;99.90
8939;DHT22;4504;48.810;9.172;2023-08-07T08:26:57;14.60;99.90
8939;DHT22;4504;48.810;9.172;2023-08-07T08:29:24;14.60;99.90
8939;DHT22;4504;48.810;9.172;2023-08-07T08:31:54;14.50;99.90
8939;DHT22;4504;48.810;9.172;2023-08-07T08:34:21;14.50;99.90
8939;DHT22;4504;48.810;9.172;2023-08-07T08:36:48;14.50;99.90
8939;DHT22;4504;48.810;9.172;2023-08-07T08:39:15;14.60;99.90
8939;DHT22;4504;48.810;9.172;2023-08-07T08:41:45;14.70;99.90
8939;DHT22;4504;48.810;9.172;2023-08-07T08:44:14;14.70;99.90
8939;DHT22;4504;48.810;9.172;2023-08-07T08:46:42;14.80;99.90
8939;DHT22;4504;48.810;9.172;2023-08-07T08:49:11;15.00;99.90
8939;DHT22;4504;48.810;9.172;2023-08-07T08:51:41;15.10;99.90
8939;DHT22;4504;48.810;9.172;2023-08-07T08:54:10;15.10;99.90
8939;DHT22;4504;48.810;9.172;2023-08-07T08:56:37;15.20;99.90
8939;DHT22;4504;48.810;9.172;2023-08-07T08:59:04;15.30;99.90
8939;DHT22;4504;48.810;9.172;2023-08-07T09:01:32;15.30;99.90
8939;DHT22;4504;48.810;9.172;2023-08-07T09:04:03;15.20;99.50
8939;DHT22;4504;48.810;9.172;2023-08-07T09:06:33;15.20;99.90
8939;DHT22;4504;48.810;9.172;2023-08-07T09:09:00;15.30;99.90
8939;DHT22;4504;48.810;9.172;2023-08-07T09:11:29;15.50;99.90
8939;DHT22;4504;48.810;9.172;2023-08-07T09:13:56;15.50;99.90
8939;DHT22;4504;48.810;9.172;2023-08-07T09:16:24;15.60;99.90
8939;DHT22;4504;48.810;9.172;2023-08-07T09:18:51;15.60;99.90
8939;DHT22;4504;48.810;9.172;2023-08-07T09:21:20;15.60;99.30
8939;DHT22;4504;48.810;9.172;2023-08-07T09:23:49;15.60;99.40
8939;DHT22;4504;48.810;9.172;2023-08-07T09:26:21;15.50;99.50
8939;DHT22;4504;48.810;9.172;2023-08-07T09:28:51;15.60;99.70
8939;DHT22;4504;48.810;9.172;2023-08-07T09:31:18;15.70;99.20
8939;DHT22;4504;48.810;9.172;2023-08-07T09:33:47;15.80;99.30
8939;DHT22;4504;48.810;9.172;2023-08-07T09:36:15;15.80;99.40
8939;DHT22;4504;48.810;9.172;2023-08-07T09:38:43;15.80;99.90
8939;DHT22;4504;48.810;9.172;2023-08-07T09:41:12;15.80;99.80
8939;DHT22;4504;48.810;9.172;2023-08-07T09:43:39;15.80;99.90
8939;DHT22;4504;48.810;9.172;2023-08-07T09:46:07;15.80;99.10
8939;DHT22;4504;48.810;9.172;2023-08-07T09:48:39;15.80;99.40
8939;DHT22;4504;48.810;9.172;2023-08-07T09:51:07;15.90;98.80
8939;DHT22;4504;48.810;9.172;2023-08-07T09:53:34;16.00;99.10
8939;DHT22;4504;48.810;9.172;2023-08-07T09:56:01;16.00;98.90
8939;DHT22;4504;48.810;9.172;2023-08-07T09:58:30;16.00;99.40
8939;DHT22;4504;48.810;9.172;2023-08-07T10:01:00;16.00;99.40
8939;DHT22;4504;48.810;9.172;2023-08-07T10:03:29;15.90;99.20
8939;DHT22;4504;48.810;9.172;2023-08-07T10:05:57;16.10;99.20
8939;DHT22;4504;48.810;9.172;2023-08-07T10:08:25;16.10;98.60
8939;DHT22;4504;48.810;9.172;2023-08-07T10:10:52;16.20;98.20
8939;DHT22;4504;48.810;9.172;2023-08-07T10:13:19;16.30;98.10
8939;DHT22;4504;48.810;9.172;2023-08-07T10:15:47;16.40;98.10
8939;DHT22;4504;48.810;9.172;2023-08-07T10:18:15;16.60;98.50
8939;DHT22;4504;48.810;9.172;2023-08-07T10:20:42;16.50;97.60
8939;DHT22;4504;48.810;9.172;2023-08-07T10:23:11;16.50;97.50
8939;DHT22;4504;48.810;9.172;2023-08-07T10:25:41;16.40;97.00
8939;DHT22;4504;48.810;9.172;2023-08-07T10:28:10;16.30;96.30
8939;DHT22;4504;48.810;9.172;2023-08-07T10:30:40;16.20;97.00
8939;DHT22;4504;48.810;9.172;2023-08-07T10:33:10;16.30;96.50
8939;DHT22;4504;48.810;9.172;2023-08-07T10:35:44;16.40;96.80
8939;DHT22;4504;48.810;9.172;2023-08-07T10:38:12;16.30;96.40
8939;DHT22;4504;48.810;9.172;2023-08-07T10:41:02;16.20;96.40
8939;DHT22;4504;48.810;9.172;2023-08-07T10:43:29;16.20;95.80
8939;DHT22;4504;48.810;9.172;2023-08-07T10:46:03;16.10;96.00
8939;DHT22;4504;48.810;9.172;2023-08-07T10:48:38;16.20;96.70
8939;DHT22;4504;48.810;9.172;2023-08-07T10:51:05;16.20;96.90
8939;DHT22;4504;48.810;9.172;2023-08-07T10:53:34;16.20;96.90
8939;DHT22;4504;48.810;9.172;2023-08-07T10:56:02;16.30;97.10
8939;DHT22;4504;48.810;9.172;2023-08-07T10:58:31;16.30;95.90
8939;DHT22;4504;48.810;9.172;2023-08-07T11:01:21;16.40;95.90
8939;DHT22;4504;48.810;9.172;2023-08-07T11:03:53;16.50;95.20
8939;DHT22;4504;48.810;9.172;2023-08-07T11:06:26;16.60;95.60
8939;DHT22;4504;48.810;9.172;2023-08-07T11:08:53;16.90;96.20
8939;DHT22;4504;48.810;9.172;2023-08-07T11:11:21;16.70;95.10
8939;DHT22;4504;48.810;9.172;2023-08-07T11:13:47;16.50;94.40
8939;DHT22;4504;48.810;9.172;2023-08-07T11:16:15;16.30;95.20
8939;DHT22;4504;48.810;9.172;2023-08-07T11:18:42;16.20;95.30
8939;DHT22;4504;48.810;9.172;2023-08-07T11:21:11;16.20;96.10
8939;DHT22;4504;48.810;9.172;2023-08-07T11:23:38;16.20;96.80
8939;DHT22;4504;48.810;9.172;2023-08-07T11:26:06;16.20;97.30
8939;DHT22;4504;48.810;9.172;2023-08-07T11:28:33;16.20;97.00
8939;DHT22;4504;48.810;9.172;2023-08-07T11:31:00;16.20;96.90
8939;DHT22;4504;48.810;9.172;2023-08-07T11:33:28;16.20;97.30
8939;DHT22;4504;48.810;9.172;2023-08-07T11:35:56;16.20;97.40
8939;DHT22;4504;48.810;9.172;2023-08-07T11:38:32;16.20;97.60
8939;DHT22;4504;48.810;9.172;2023-08-07T11:41:00;16.20;97.70
8939;DHT22;4504;48.810;9.172;2023-08-07T11:43:28;16.20;97.80
8939;DHT22;4504;48.810;9.172;2023-08-07T11:45:57;16.20;98.40
8939;DHT22;4504;48.810;9.172;2023-08-07T11:48:25;16.30;98.70
8939;DHT22;4504;48.810;9.172;2023-08-07T11:50:53;16.10;98.00
8939;DHT22;4504;48.810;9.172;2023-08-07T11:53:20;16.10;98.60
8939;DHT22;4504;48.810;9.172;2023-08-07T11:55:52;16.10;98.70
8939;DHT22;4504;48.810;9.172;2023-08-07T11:58:21;16.10;98.90
8939;DHT22;4504;48.810;9.172;2023-08-07T12:00:48;16.10;99.20
8939;DHT22;4504;48.810;9.172;2023-08-07T12:03:29;16.20;99.40
8939;DHT22;4504;48.810;9.172;2023-08-07T12:05:57;16.00;98.60
8939;DHT22;4504;48.810;9.172;2023-08-07T12:08:31;16.00;98.90
8939;DHT22;4504;48.810;9.172;2023-08-07T12:11:01;16.00;98.90
8939;DHT22;4504;48.810;9.172;2023-08-07T12:13:29;16.00;98.90
8939;DHT22;4504;48.810;9.172;2023-08-07T12:15:58;16.10;98.90
8939;DHT22;4504;48.810;9.172;2023-08-07T12:18:27;16.20;98.90
8939;DHT22;4504;48.810;9.172;2023-08-07T12:20:57;16.20;99.30
8939;DHT22;4504;48.810;9.172;2023-08-07T12:23:25;16.40;99.90
8939;DHT22;4504;48.810;9.172;2023-08-07T12:25:52;16.40;99.90
8939;DHT22;4504;48.810;9.172;2023-08-07T12:28:21;16.40;99.90
8939;DHT22;4504;48.810;9.172;2023-08-07T12:30:49;16.50;99.90
8939;DHT22;4504;48.810;9.172;2023-08-07T12:33:17;16.60;99.90
8939;DHT22;4504;48.810;9.172;2023-08-07T12:35:44;16.50;99.70
8939;DHT22;4504;48.810;9.172;2023-08-07T12:38:11;16.50;99.80
8939;DHT22;4504;48.810;9.172;2023-08-07T12:40:40;16.50;99.80
8939;DHT22;4504;48.810;9.172;2023-08-07T12:43:07;16.60;99.90
8939;DHT22;4504;48.810;9.172;2023-08-07T12:45:35;16.80;99.90
8939;DHT22;4504;48.810;9.172;2023-08-07T12:48:04;16.80;99.90
8939;DHT22;4504;48.810;9.172;2023-08-07T12:50:31;17.00;99.90
8939;DHT22;4504;48.810;9.172;2023-08-07T12:52:58;17.00;99.50
8939;DHT22;4504;48.810;9.172;2023-08-07T12:55:25;16.90;99.20
8939;DHT22;4504;48.810;9.172;2023-08-07T12:57:54;17.00;99.50
8939;DHT22;4504;48.810;9.172;2023-08-07T13:00:21;17.10;99.90
8939;DHT22;4504;48.810;9.172;2023-08-07T13:02:50;17.00;99.60
8939;DHT22;4504;48.810;9.172;2023-08-07T13:05:19;16.90;99.40
8939;DHT22;4504;48.810;9.172;2023-08-07T13:07:46;17.00;99.50
8939;DHT22;4504;48.810;9.172;2023-08-07T13:10:14;17.00;99.80
8939;DHT22;4504;48.810;9.172;2023-08-07T13:12:42;16.90;99.90
8939;DHT22;4504;48.810;9.172;2023-08-07T13:15:12;16.80;99.90
8939;DHT22;4504;48.810;9.172;2023-08-07T13:17:39;16.70;99.90
8939;DHT22;4504;48.810;9.172;2023-08-07T13:20:09;16.70;99.90
8939;DHT22;4504;48.810;9.172;2023-08-07T13:22:39;16.70;99.90
8939;DHT22;4504;48.810;9.172;2023-08-07T13:25:08;16.70;99.90
8939;DHT22;4504;48.810;9.172;2023-08-07T13:27:35;16.60;99.90
8939;DHT22;4504;48.810;9.172;2023-08-07T13:30:04;16.70;99.90
8939;DHT22;4504;48.810;9.172;2023-08-07T13:32:31;16.70;99.90
8939;DHT22;4504;48.810;9.172;2023-08-07T13:34:58;16.80;99.90
8939;DHT22;4504;48.810;9.172;2023-08-07T13:37:27;17.00;99.90
8939;DHT22;4504;48.810;9.172;2023-08-07T13:39:54;17.10;98.50
8939;DHT22;4504;48.810;9.172;2023-08-07T13:42:23;17.30;97.70
8939;DHT22;4504;48.810;9.172;2023-08-07T13:44:51;17.50;98.10
8939;DHT22;4504;48.810;9.172;2023-08-07T13:47:18;17.80;96.90
8939;DHT22;4504;48.810;9.172;2023-08-07T13:49:46;17.80;97.30
8939;DHT22;4504;48.810;9.172;2023-08-07T13:52:13;17.70;97.00
8939;DHT22;4504;48.810;9.172;2023-08-07T13:54:41;17.60;97.40
8939;DHT22;4504;48.810;9.172;2023-08-07T13:57:08;17.50;97.10
8939;DHT22;4504;48.810;9.172;2023-08-07T13:59:35;17.50;97.70
8939;DHT22;4504;48.810;9.172;2023-08-07T14:02:02;17.40;97.80
8939;DHT22;4504;48.810;9.172;2023-08-07T14:04:29;17.20;97.00
8939;DHT22;4504;48.810;9.172;2023-08-07T14:06:57;17.20;97.80
8939;DHT22;4504;48.810;9.172;2023-08-07T14:09:24;17.20;97.90
8939;DHT22;4504;48.810;9.172;2023-08-07T14:11:53;17.20;97.50
8939;DHT22;4504;48.810;9.172;2023-08-07T14:14:21;17.30;98.30
8939;DHT22;4504;48.810;9.172;2023-08-07T14:16:48;17.60;97.70
8939;DHT22;4504;48.810;9.172;2023-08-07T14:19:15;18.20;97.40
8939;DHT22;4504;48.810;9.172;2023-08-07T14:21:42;18.70;94.10
8939;DHT22;4504;48.810;9.172;2023-08-07T14:24:09;18.50;93.20
8939;DHT22;4504;48.810;9.172;2023-08-07T14:26:36;18.30;94.40
8939;DHT22;4504;48.810;9.172;2023-08-07T14:29:04;18.10;94.50
8939;DHT22;4504;48.810;9.172;2023-08-07T14:31:31;17.90;94.70
8939;DHT22;4504;48.810;9.172;2023-08-07T14:33:58;17.80;95.70
8939;DHT22;4504;48.810;9.172;2023-08-07T14:36:25;17.70;96.00
8939;DHT22;4504;48.810;9.172;2023-08-07T14:38:52;17.70;96.40
8939;DHT22;4504;48.810;9.172;2023-08-07T14:41:19;18.20;95.50
8939;DHT22;4504;48.810;9.172;2023-08-07T14:43:46;18.50;94.60
8939;DHT22;4504;48.810;9.172;2023-08-07T14:46:16;18.40;94.80
8939;DHT22;4504;48.810;9.172;2023-08-07T14:48:44;18.50;94.70
8939;DHT22;4504;48.810;9.172;2023-08-07T14:51:13;18.60;94.30
8939;DHT22;4504;48.810;9.172;2023-08-07T14:53:40;19.20;94.60
8939;DHT22;4504;48.810;9.172;2023-08-07T14:56:07;19.80;94.10
8939;DHT22;4504;48.810;9.172;2023-08-07T14:58:34;20.10;93.40
8939;DHT22;4504;48.810;9.172;2023-08-07T15:01:01;20.20;91.50
8939;DHT22;4504;48.810;9.172;2023-08-07T15:03:30;19.80;92.60
8939;DHT22;4504;48.810;9.172;2023-08-07T15:05:57;19.30;93.20
8939;DHT22;4504;48.810;9.172;2023-08-07T15:08:24;18.80;94.10
8939;DHT22;4504;48.810;9.172;2023-08-07T15:10:52;18.30;94.80
8939;DHT22;4504;48.810;9.172;2023-08-07T15:13:19;18.00;94.70
8939;DHT22;4504;48.810;9.172;2023-08-07T15:15:46;17.80;94.60
8939;DHT22;4504;48.810;9.172;2023-08-07T15:18:13;17.80;95.40
8939;DHT22;4504;48.810;9.172;2023-08-07T15:20:41;17.80;95.50
8939;DHT22;4504;48.810;9.172;2023-08-07T15:23:08;17.80;95.20
8939;DHT22;4504;48.810;9.172;2023-08-07T15:25:37;17.70;95.60
8939;DHT22;4504;48.810;9.172;2023-08-07T15:28:05;17.60;95.20
8939;DHT22;4504;48.810;9.172;2023-08-07T15:30:32;17.60;95.00
8939;DHT22;4504;48.810;9.172;2023-08-07T15:33:03;17.60;94.60
8939;DHT22;4504;48.810;9.172;2023-08-07T15:35:38;17.70;95.00
8939;DHT22;4504;48.810;9.172;2023-08-07T15:38:06;17.80;95.10
8939;DHT22;4504;48.810;9.172;2023-08-07T15:40:33;17.90;95.40
8939;DHT22;4504;48.810;9.172;2023-08-07T15:43:00;18.10;95.60
8939;DHT22;4504;48.810;9.172;2023-08-07T15:45:27;18.50;95.20
8939;DHT22;4504;48.810;9.172;2023-08-07T15:47:54;18.70;94.70
8939;DHT22;4504;48.810;9.172;2023-08-07T15:50:21;18.70;94.40
8939;DHT22;4504;48.810;9.172;2023-08-07T15:52:48;18.70;95.00
8939;DHT22;4504;48.810;9.172;2023-08-07T15:55:17;18.40;94.20
8939;DHT22;4504;48.810;9.172;2023-08-07T15:57:44;18.20;94.20
8939;DHT22;4504;48.810;9.172;2023-08-07T16:00:13;18.20;94.50
8939;DHT22;4504;48.810;9.172;2023-08-07T16:02:40;18.20;94.80
8939;DHT22;4504;48.810;9.172;2023-08-07T16:05:07;18.20;94.90
8939;DHT22;4504;48.810;9.172;2023-08-07T16:07:34;18.20;95.00